Hanty-Mansijsk, Russia
Current Conditions -  °F | °C
As of 4:00 AM on Monday 22 Dec 2014 (Local Time) from USHH Reporting Station
Overcast Overcast  
Wind Chill: 17°   Ceiling: 900
Heat Index: 28°   Visibility: 6mi
Dew Point: 25°   Wind: 16mph
Humidity: 86%   Direction: 210°SSW
Pressure: 29.44"   Gusts: NA
Location:  61°N, 69°E
Report Text: USHH 212300Z 21007MPS 9999 BKN009CB OVC080 M02/M04 Q0997 TEMPO0500 +SHSN +FZRA OVC002 RMK QFE744 24////35 FBL ICE INC MOD TURB
Loading
Personal Weather Stations






























Interactive Weather Map New forecast layout! Learn more

10-Day Weather Forecast

Advertisements
Track Severe Weather on mobile